createdAt,value
2022-10-29T00:04:33.510Z,18.73
2022-10-29T00:14:35.484Z,22.87
2022-10-29T00:24:37.098Z,14.13
2022-10-29T00:34:38.785Z,14.97
2022-10-29T00:44:41.061Z,15.00
2022-10-29T00:54:44.852Z,20.07
2022-10-29T01:04:46.776Z,18.30
2022-10-29T01:15:14.067Z,16.67
2022-10-29T01:25:46.287Z,13.50
2022-10-29T01:35:57.533Z,15.80
2022-10-29T01:46:06.220Z,13.47
2022-10-29T01:56:08.212Z,18.70
2022-10-29T02:06:28.523Z,20.73
2022-10-29T02:16:30.873Z,15.10
2022-10-29T02:26:32.536Z,13.00
2022-10-29T02:36:34.245Z,16.23
2022-10-29T02:46:39.532Z,10.57
2022-10-29T02:56:41.205Z,11.63
2022-10-29T03:06:43.186Z,14.47
2022-10-29T03:16:44.840Z,13.57
2022-10-29T03:26:46.476Z,16.60
2022-10-29T03:36:48.117Z,12.07
2022-10-29T03:46:49.781Z,17.20
2022-10-29T03:56:51.491Z,24.77
2022-10-29T04:06:53.184Z,22.10
2022-10-29T04:16:54.861Z,18.03
2022-10-29T04:37:18.101Z,22.60
2022-10-29T04:47:19.745Z,14.90
2022-10-29T04:57:21.383Z,11.43
2022-10-29T05:07:23.048Z,17.17
2022-10-29T05:17:25.783Z,26.50
2022-10-29T05:27:27.432Z,9.63
2022-10-29T05:37:29.081Z,55.07
2022-10-29T05:47:30.715Z,78.10
2022-10-29T05:57:32.608Z,14.13
2022-10-29T06:07:34.263Z,11.53
2022-10-29T06:17:41.692Z,16.00
2022-10-29T06:27:43.353Z,12.33
2022-10-29T06:37:44.998Z,14.60
2022-10-29T06:47:46.696Z,14.70
2022-10-29T06:57:48.587Z,13.20
2022-10-29T07:07:57.755Z,15.77
2022-10-29T07:18:05.335Z,10.67
2022-10-29T07:28:20.710Z,11.27
2022-10-29T07:38:22.428Z,11.93
2022-10-29T07:48:24.373Z,8.10
2022-10-29T07:58:26.674Z,10.43
2022-10-29T08:08:28.479Z,4.60
2022-10-29T08:18:30.196Z,6.93
2022-10-29T08:28:35.657Z,5.40
2022-10-29T08:38:37.568Z,9.03
2022-10-29T08:48:48.697Z,6.00
2022-10-29T08:59:07.027Z,5.53
2022-10-29T09:09:33.488Z,30.73
2022-10-29T09:19:48.112Z,11.27
2022-10-29T09:30:18.458Z,8.80
2022-10-29T09:40:31.287Z,7.73
2022-10-29T09:50:48.810Z,7.23
2022-10-29T10:00:51.214Z,11.20
2022-10-29T10:10:55.833Z,14.17
2022-10-29T10:21:06.439Z,12.30
2022-10-29T10:31:12.369Z,10.77
2022-10-29T10:41:16.226Z,14.93
2022-10-29T10:51:30.144Z,13.50
2022-10-29T11:01:35.623Z,11.90
2022-10-29T11:11:45.465Z,13.27
2022-10-29T11:22:03.162Z,12.93
2022-10-29T11:32:20.705Z,12.83
2022-10-29T11:42:22.382Z,23.93
2022-10-29T11:53:15.025Z,15.17
2022-10-29T12:03:40.297Z,12.63
2022-10-29T12:14:12.800Z,12.30
2022-10-29T12:24:43.054Z,17.20
2022-10-29T12:35:06.820Z,16.60
2022-10-29T12:45:20.313Z,15.57
2022-10-29T12:55:22.277Z,16.03
2022-10-29T13:05:43.700Z,11.97
2022-10-29T13:15:49.369Z,15.17
2022-10-29T13:25:54.541Z,12.10
2022-10-29T13:36:00.356Z,13.77
2022-10-29T13:46:14.236Z,18.80
2022-10-29T13:56:22.746Z,13.47
2022-10-29T14:06:31.357Z,17.20
2022-10-29T14:16:33.832Z,15.40
2022-10-29T14:26:40.739Z,23.30
2022-10-29T14:36:46.823Z,12.63
2022-10-29T14:47:07.574Z,14.13
2022-10-29T14:57:16.239Z,23.20
2022-10-29T15:07:23.788Z,17.27
2022-10-29T15:17:31.027Z,14.87
2022-10-29T15:27:36.009Z,15.13
2022-10-29T15:37:45.048Z,11.87
2022-10-29T15:47:51.069Z,16.37
2022-10-29T15:57:53.999Z,12.67
2022-10-29T16:08:00.763Z,23.30
2022-10-29T16:18:02.426Z,19.73
2022-10-29T16:28:04.496Z,22.67
2022-10-29T16:38:06.198Z,21.30
2022-10-29T16:48:07.887Z,25.70
2022-10-29T16:58:12.540Z,18.87
2022-10-29T17:08:14.344Z,16.63
2022-10-29T17:18:15.978Z,18.07
2022-10-29T17:28:17.660Z,17.00
2022-10-29T17:38:19.363Z,19.17
2022-10-29T17:48:24.033Z,22.30
2022-10-29T17:58:27.461Z,20.33
2022-10-29T18:08:29.819Z,24.80
2022-10-29T18:18:48.083Z,24.20
2022-10-29T18:29:00.014Z,20.73
2022-10-29T18:39:01.800Z,20.63
2022-10-29T18:49:03.710Z,19.03
2022-10-29T18:59:05.500Z,24.00
2022-10-29T19:09:09.377Z,23.97
2022-10-29T19:19:14.419Z,22.23
2022-10-29T19:29:16.944Z,25.27
2022-10-29T19:39:19.281Z,21.27
2022-10-29T19:49:21.469Z,17.83
2022-10-29T19:59:23.152Z,22.50
2022-10-29T20:09:24.803Z,24.40
2022-10-29T20:19:26.494Z,25.13
2022-10-29T20:29:28.187Z,23.00
2022-10-29T20:39:33.228Z,21.07
2022-10-29T20:49:35.304Z,18.10
2022-10-29T20:59:37.015Z,18.67
2022-10-29T21:09:38.696Z,18.33
2022-10-29T21:19:40.441Z,23.93
2022-10-29T21:29:42.103Z,18.40
2022-10-29T21:39:43.778Z,18.13
2022-10-29T21:49:51.829Z,18.40
2022-10-29T21:59:53.728Z,26.13
2022-10-29T22:09:55.551Z,32.40
2022-10-29T22:19:57.519Z,34.97
2022-10-29T22:29:59.221Z,33.30
2022-10-29T22:40:00.885Z,71.87
2022-10-29T22:50:02.578Z,112.27
2022-10-29T23:00:04.677Z,62.10
2022-10-29T23:10:06.668Z,45.67
2022-10-29T23:20:08.482Z,58.03
2022-10-29T23:30:10.854Z,49.63
2022-10-29T23:40:12.685Z,56.50
2022-10-29T23:50:14.444Z,40.77
